sensor_id;sensor_type;location;lat;lon;timestamp;pressure;altitude;pressure_sealevel;temperature;humidity
78149;BME280;67396;42.664;23.382;2023-06-14T00:01:40;94675.16;;;16.45;84.78
78149;BME280;67396;42.664;23.382;2023-06-14T00:04:09;94679.69;;;16.55;84.44
78149;BME280;67396;42.664;23.382;2023-06-14T00:06:35;94672.88;;;16.60;84.41
78149;BME280;67396;42.664;23.382;2023-06-14T00:09:00;94672.16;;;16.75;83.17
78149;BME280;67396;42.664;23.382;2023-06-14T00:11:26;94672.06;;;16.79;83.12
78149;BME280;67396;42.664;23.382;2023-06-14T00:14:08;94663.47;;;16.89;82.68
78149;BME280;67396;42.664;23.382;2023-06-14T00:16:34;94657.94;;;16.89;82.43
78149;BME280;67396;42.664;23.382;2023-06-14T00:22:38;94665.41;;;17.09;81.15
78149;BME280;67396;42.664;23.382;2023-06-14T00:25:23;94653.06;;;17.26;80.13
78149;BME280;67396;42.664;23.382;2023-06-14T00:31:34;94652.47;;;17.18;80.33
78149;BME280;67396;42.664;23.382;2023-06-14T00:34:06;94652.41;;;17.22;80.04
78149;BME280;67396;42.664;23.382;2023-06-14T00:36:38;94653.34;;;17.32;79.51
78149;BME280;67396;42.664;23.382;2023-06-14T00:39:03;94652.41;;;17.22;80.05
78149;BME280;67396;42.664;23.382;2023-06-14T00:41:55;94653.44;;;17.28;79.93
78149;BME280;67396;42.664;23.382;2023-06-14T00:44:30;94649.59;;;17.38;79.21
78149;BME280;67396;42.664;23.382;2023-06-14T00:46:56;94645.81;;;17.32;79.43
78149;BME280;67396;42.664;23.382;2023-06-14T00:49:34;94641.31;;;17.22;79.48
78149;BME280;67396;42.664;23.382;2023-06-14T00:52:16;94632.19;;;17.21;79.60
78149;BME280;67396;42.664;23.382;2023-06-14T00:54:45;94641.13;;;17.29;79.03
78149;BME280;67396;42.664;23.382;2023-06-14T00:57:13;94645.00;;;17.48;78.38
78149;BME280;67396;42.664;23.382;2023-06-14T00:59:46;94634.50;;;17.39;78.78
78149;BME280;67396;42.664;23.382;2023-06-14T01:02:18;94640.31;;;17.45;78.54
78149;BME280;67396;42.664;23.382;2023-06-14T01:04:46;94643.94;;;17.42;78.84
78149;BME280;67396;42.664;23.382;2023-06-14T01:18:19;94639.22;;;17.10;79.77
78149;BME280;67396;42.664;23.382;2023-06-14T01:21:22;94644.25;;;16.99;80.66
78149;BME280;67396;42.664;23.382;2023-06-14T01:23:53;94644.59;;;17.01;80.68
78149;BME280;67396;42.664;23.382;2023-06-14T01:26:31;94638.38;;;17.13;79.77
78149;BME280;67396;42.664;23.382;2023-06-14T01:29:06;94639.75;;;17.21;79.57
78149;BME280;67396;42.664;23.382;2023-06-14T01:31:46;94642.88;;;17.23;79.72
78149;BME280;67396;42.664;23.382;2023-06-14T01:34:37;94639.94;;;17.14;79.66
78149;BME280;67396;42.664;23.382;2023-06-14T01:37:25;94638.63;;;17.02;80.27
78149;BME280;67396;42.664;23.382;2023-06-14T01:43:18;94642.16;;;17.19;79.12
78149;BME280;67396;42.664;23.382;2023-06-14T01:46:03;94636.25;;;17.17;79.07
78149;BME280;67396;42.664;23.382;2023-06-14T01:49:13;94634.09;;;17.24;78.34
78149;BME280;67396;42.664;23.382;2023-06-14T01:52:05;94639.00;;;17.33;77.72
78149;BME280;67396;42.664;23.382;2023-06-14T01:55:04;94628.84;;;17.43;76.35
78149;BME280;67396;42.664;23.382;2023-06-14T01:58:15;94632.56;;;17.52;75.80
78149;BME280;67396;42.664;23.382;2023-06-14T02:01:10;94641.59;;;17.56;75.55
78149;BME280;67396;42.664;23.382;2023-06-14T02:03:52;94640.06;;;17.39;77.38
78149;BME280;67396;42.664;23.382;2023-06-14T02:06:19;94642.91;;;17.36;77.76
78149;BME280;67396;42.664;23.382;2023-06-14T02:08:48;94645.47;;;17.14;78.68
78149;BME280;67396;42.664;23.382;2023-06-14T02:11:41;94659.50;;;17.07;79.38
78149;BME280;67396;42.664;23.382;2023-06-14T02:14:07;94663.75;;;16.79;80.92
78149;BME280;67396;42.664;23.382;2023-06-14T02:16:42;94661.59;;;16.70;81.48
78149;BME280;67396;42.664;23.382;2023-06-14T02:19:31;94671.53;;;16.48;82.75
78149;BME280;67396;42.664;23.382;2023-06-14T02:22:18;94664.22;;;16.22;84.09
78149;BME280;67396;42.664;23.382;2023-06-14T02:25:01;94670.31;;;15.93;86.08
78149;BME280;67396;42.664;23.382;2023-06-14T02:27:36;94673.38;;;15.79;86.10
78149;BME280;67396;42.664;23.382;2023-06-14T02:30:28;94675.72;;;15.61;86.32
78149;BME280;67396;42.664;23.382;2023-06-14T02:33:05;94678.22;;;15.52;86.82
78149;BME280;67396;42.664;23.382;2023-06-14T02:36:11;94677.53;;;15.48;87.08
78149;BME280;67396;42.664;23.382;2023-06-14T02:38:54;94672.81;;;15.44;87.50
78149;BME280;67396;42.664;23.382;2023-06-14T02:41:41;94671.00;;;15.58;87.00
78149;BME280;67396;42.664;23.382;2023-06-14T02:44:29;94671.00;;;15.58;87.28
78149;BME280;67396;42.664;23.382;2023-06-14T02:47:06;94673.88;;;15.51;87.60
78149;BME280;67396;42.664;23.382;2023-06-14T02:49:41;94672.75;;;15.48;87.89
78149;BME280;67396;42.664;23.382;2023-06-14T02:52:17;94672.03;;;15.44;87.54
78149;BME280;67396;42.664;23.382;2023-06-14T03:01:06;94686.41;;;15.35;87.57
78149;BME280;67396;42.664;23.382;2023-06-14T03:03:36;94677.84;;;15.30;87.93
78149;BME280;67396;42.664;23.382;2023-06-14T03:06:31;94684.84;;;15.34;88.19
78149;BME280;67396;42.664;23.382;2023-06-14T03:09:07;94673.78;;;15.34;88.13
78149;BME280;67396;42.664;23.382;2023-06-14T03:11:35;94680.47;;;15.37;88.18
78149;BME280;67396;42.664;23.382;2023-06-14T03:14:12;94694.94;;;15.44;87.95
78149;BME280;67396;42.664;23.382;2023-06-14T03:17:01;94689.19;;;15.59;87.58
78149;BME280;67396;42.664;23.382;2023-06-14T03:19:25;94684.78;;;15.61;87.27
78149;BME280;67396;42.664;23.382;2023-06-14T03:21:52;94687.78;;;15.70;87.25
78149;BME280;67396;42.664;23.382;2023-06-14T03:24:19;94691.41;;;15.87;86.44
78149;BME280;67396;42.664;23.382;2023-06-14T03:26:45;94694.13;;;15.91;86.37
78149;BME280;67396;42.664;23.382;2023-06-14T03:29:10;94691.47;;;16.03;85.60
78149;BME280;67396;42.664;23.382;2023-06-14T03:31:55;94685.78;;;16.10;85.38
78149;BME280;67396;42.664;23.382;2023-06-14T03:34:21;94687.34;;;16.11;85.26
78149;BME280;67396;42.664;23.382;2023-06-14T03:36:50;94701.13;;;15.95;85.42
78149;BME280;67396;42.664;23.382;2023-06-14T03:39:16;94690.13;;;15.72;86.25
78149;BME280;67396;42.664;23.382;2023-06-14T03:41:41;94691.75;;;15.69;86.62
78149;BME280;67396;42.664;23.382;2023-06-14T03:44:46;94696.94;;;15.67;86.86
78149;BME280;67396;42.664;23.382;2023-06-14T03:50:44;94697.94;;;15.77;86.50
78149;BME280;67396;42.664;23.382;2023-06-14T03:53:12;94708.63;;;15.75;87.07
78149;BME280;67396;42.664;23.382;2023-06-14T03:55:38;94697.28;;;15.69;86.88
78149;BME280;67396;42.664;23.382;2023-06-14T03:58:06;94709.03;;;15.54;86.81
78149;BME280;67396;42.664;23.382;2023-06-14T04:00:39;94705.22;;;15.44;87.15
78149;BME280;67396;42.664;23.382;2023-06-14T04:03:05;94704.22;;;15.34;87.43
78149;BME280;67396;42.664;23.382;2023-06-14T04:05:37;94708.53;;;15.35;87.71
78149;BME280;67396;42.664;23.382;2023-06-14T04:08:08;94703.72;;;15.39;87.75
78149;BME280;67396;42.664;23.382;2023-06-14T04:10:49;94703.66;;;15.43;87.58
78149;BME280;67396;42.664;23.382;2023-06-14T04:13:23;94705.88;;;15.52;87.85
78149;BME280;67396;42.664;23.382;2023-06-14T04:16:00;94708.31;;;15.73;87.06
78149;BME280;67396;42.664;23.382;2023-06-14T04:18:25;94711.34;;;15.78;86.94
78149;BME280;67396;42.664;23.382;2023-06-14T04:21:00;94714.75;;;15.86;86.09
78149;BME280;67396;42.664;23.382;2023-06-14T04:23:35;94711.06;;;15.93;86.23
78149;BME280;67396;42.664;23.382;2023-06-14T04:26:02;94710.50;;;16.01;85.28
78149;BME280;67396;42.664;23.382;2023-06-14T04:28:28;94712.38;;;16.08;85.32
78149;BME280;67396;42.664;23.382;2023-06-14T04:30:55;94715.25;;;16.21;85.16
78149;BME280;67396;42.664;23.382;2023-06-14T04:33:38;94711.34;;;16.38;84.72
78149;BME280;67396;42.664;23.382;2023-06-14T04:36:17;94707.06;;;16.53;83.65
78149;BME280;67396;42.664;23.382;2023-06-14T04:38:48;94703.66;;;16.65;82.90
78149;BME280;67396;42.664;23.382;2023-06-14T04:41:21;94712.59;;;16.73;82.54
78149;BME280;67396;42.664;23.382;2023-06-14T04:43:51;94713.19;;;16.80;82.73
78149;BME280;67396;42.664;23.382;2023-06-14T04:46:18;94711.84;;;16.88;82.56
78149;BME280;67396;42.664;23.382;2023-06-14T04:48:44;94717.97;;;16.80;81.67
78149;BME280;67396;42.664;23.382;2023-06-14T04:51:16;94716.69;;;16.84;81.22
78149;BME280;67396;42.664;23.382;2023-06-14T04:53:48;94713.94;;;17.01;80.56
78149;BME280;67396;42.664;23.382;2023-06-14T04:56:15;94713.31;;;17.09;80.10
78149;BME280;67396;42.664;23.382;2023-06-14T04:58:47;94721.47;;;17.00;80.24
78149;BME280;67396;42.664;23.382;2023-06-14T05:01:12;94729.16;;;16.92;80.25
78149;BME280;67396;42.664;23.382;2023-06-14T05:03:44;94726.22;;;16.83;81.36
78149;BME280;67396;42.664;23.382;2023-06-14T05:06:14;94730.50;;;16.68;81.57
78149;BME280;67396;42.664;23.382;2023-06-14T05:08:46;94729.63;;;16.71;80.86
78149;BME280;67396;42.664;23.382;2023-06-14T05:11:12;94732.38;;;16.91;80.28
78149;BME280;67396;42.664;23.382;2023-06-14T05:13:40;94737.66;;;17.02;79.91
78149;BME280;67396;42.664;23.382;2023-06-14T05:16:07;94732.31;;;17.27;78.58
78149;BME280;67396;42.664;23.382;2023-06-14T05:21:07;94738.22;;;17.45;77.12
78149;BME280;67396;42.664;23.382;2023-06-14T05:23:44;94723.91;;;17.30;78.44
78149;BME280;67396;42.664;23.382;2023-06-14T05:26:10;94742.81;;;17.19;79.69
78149;BME280;67396;42.664;23.382;2023-06-14T05:28:56;94746.59;;;17.09;80.45
78149;BME280;67396;42.664;23.382;2023-06-14T05:31:33;94751.78;;;17.07;79.44
78149;BME280;67396;42.664;23.382;2023-06-14T05:34:05;94751.91;;;17.04;79.66
78149;BME280;67396;42.664;23.382;2023-06-14T05:36:30;94757.28;;;17.11;79.27
78149;BME280;67396;42.664;23.382;2023-06-14T05:39:02;94761.19;;;17.29;78.43
78149;BME280;67396;42.664;23.382;2023-06-14T05:41:39;94750.94;;;17.43;79.07
78149;BME280;67396;42.664;23.382;2023-06-14T05:44:05;94752.06;;;17.61;78.20
78149;BME280;67396;42.664;23.382;2023-06-14T05:46:36;94750.00;;;17.82;77.60
78149;BME280;67396;42.664;23.382;2023-06-14T05:49:07;94758.09;;;18.05;75.90
78149;BME280;67396;42.664;23.382;2023-06-14T05:52:01;94754.81;;;18.10;75.57
78149;BME280;67396;42.664;23.382;2023-06-14T05:54:26;94763.28;;;18.19;75.64
78149;BME280;67396;42.664;23.382;2023-06-14T05:56:52;94760.38;;;18.23;74.15
78149;BME280;67396;42.664;23.382;2023-06-14T05:59:26;94762.22;;;18.29;73.73
78149;BME280;67396;42.664;23.382;2023-06-14T06:01:52;94760.53;;;18.32;73.80
78149;BME280;67396;42.664;23.382;2023-06-14T06:04:18;94748.31;;;18.00;75.04
78149;BME280;67396;42.664;23.382;2023-06-14T06:06:47;94757.09;;;17.99;75.75
78149;BME280;67396;42.664;23.382;2023-06-14T06:11:51;94758.81;;;18.38;76.83
78149;BME280;67396;42.664;23.382;2023-06-14T06:14:23;94769.50;;;18.23;74.77
78149;BME280;67396;42.664;23.382;2023-06-14T06:17:31;94764.72;;;18.24;74.73
78149;BME280;67396;42.664;23.382;2023-06-14T06:20:29;94766.78;;;18.07;74.22
78149;BME280;67396;42.664;23.382;2023-06-14T06:23:15;94771.03;;;18.12;74.65
78149;BME280;67396;42.664;23.382;2023-06-14T06:26:05;94771.28;;;18.46;74.28
78149;BME280;67396;42.664;23.382;2023-06-14T06:28:53;94774.16;;;18.84;72.51
78149;BME280;67396;42.664;23.382;2023-06-14T06:31:28;94775.63;;;19.14;70.79
78149;BME280;67396;42.664;23.382;2023-06-14T06:33:55;94772.66;;;19.34;70.48
78149;BME280;67396;42.664;23.382;2023-06-14T06:36:27;94772.22;;;19.48;68.76
78149;BME280;67396;42.664;23.382;2023-06-14T06:39:04;94776.31;;;19.69;67.29
78149;BME280;67396;42.664;23.382;2023-06-14T06:41:58;94776.19;;;19.72;67.24
78149;BME280;67396;42.664;23.382;2023-06-14T06:44:30;94783.00;;;19.33;68.91
78149;BME280;67396;42.664;23.382;2023-06-14T06:47:32;94780.06;;;18.86;70.98
78149;BME280;67396;42.664;23.382;2023-06-14T06:50:21;94787.25;;;18.71;71.66
78149;BME280;67396;42.664;23.382;2023-06-14T06:52:48;94783.81;;;18.38;73.16
78149;BME280;67396;42.664;23.382;2023-06-14T07:28:53;94772.84;;;20.46;68.15
78149;BME280;67396;42.664;23.382;2023-06-14T07:35:58;94770.47;;;21.41;63.66
78149;BME280;67396;42.664;23.382;2023-06-14T07:38:26;94766.84;;;21.62;63.02
78149;BME280;67396;42.664;23.382;2023-06-14T07:40:52;94766.47;;;22.00;60.59
78149;BME280;67396;42.664;23.382;2023-06-14T07:43:23;94765.88;;;22.24;59.00
78149;BME280;67396;42.664;23.382;2023-06-14T07:46:20;94771.94;;;22.40;57.88
78149;BME280;67396;42.664;23.382;2023-06-14T07:52:09;94780.91;;;21.99;59.14
78149;BME280;67396;42.664;23.382;2023-06-14T07:54:42;94783.56;;;22.11;57.62
78149;BME280;67396;42.664;23.382;2023-06-14T07:57:08;94790.00;;;21.90;57.89
78149;BME280;67396;42.664;23.382;2023-06-14T07:59:46;94790.97;;;21.96;57.33
78149;BME280;67396;42.664;23.382;2023-06-14T08:02:15;94783.06;;;21.95;56.43
78149;BME280;67396;42.664;23.382;2023-06-14T08:04:40;94795.28;;;21.79;58.59
78149;BME280;67396;42.664;23.382;2023-06-14T08:07:07;94791.16;;;22.02;58.17
78149;BME280;67396;42.664;23.382;2023-06-14T08:12:37;94795.38;;;22.43;58.14
78149;BME280;67396;42.664;23.382;2023-06-14T08:15:51;94799.16;;;22.49;57.03
78149;BME280;67396;42.664;23.382;2023-06-14T08:19:39;94798.97;;;22.52;57.86
78149;BME280;67396;42.664;23.382;2023-06-14T08:25:36;94811.50;;;22.02;57.08
78149;BME280;67396;42.664;23.382;2023-06-14T08:28:16;94807.53;;;22.31;57.09
78149;BME280;67396;42.664;23.382;2023-06-14T08:31:02;94814.19;;;22.70;55.91
78149;BME280;67396;42.664;23.382;2023-06-14T08:36:09;94803.44;;;23.14;53.29
78149;BME280;67396;42.664;23.382;2023-06-14T08:38:41;94816.38;;;23.11;54.65
78149;BME280;67396;42.664;23.382;2023-06-14T08:41:20;94805.19;;;23.11;53.16
78149;BME280;67396;42.664;23.382;2023-06-14T08:43:47;94800.13;;;23.34;53.89
78149;BME280;67396;42.664;23.382;2023-06-14T08:46:38;94797.47;;;23.39;53.30
78149;BME280;67396;42.664;23.382;2023-06-14T08:49:04;94800.97;;;23.07;55.33
78149;BME280;67396;42.664;23.382;2023-06-14T08:51:55;94795.13;;;22.86;54.03
78149;BME280;67396;42.664;23.382;2023-06-14T08:54:27;94788.44;;;22.75;53.66
78149;BME280;67396;42.664;23.382;2023-06-14T08:57:04;94784.19;;;22.88;53.97
78149;BME280;67396;42.664;23.382;2023-06-14T08:59:35;94790.38;;;23.20;53.72
78149;BME280;67396;42.664;23.382;2023-06-14T09:02:13;94794.19;;;23.50;54.29
78149;BME280;67396;42.664;23.382;2023-06-14T09:04:47;94786.31;;;23.30;53.58
78149;BME280;67396;42.664;23.382;2023-06-14T09:07:14;94790.09;;;23.09;54.62
78149;BME280;67396;42.664;23.382;2023-06-14T09:16:20;94780.47;;;23.01;53.54
78149;BME280;67396;42.664;23.382;2023-06-14T09:21:50;94782.94;;;22.71;54.64
78149;BME280;67396;42.664;23.382;2023-06-14T09:34:30;94783.91;;;22.32;56.00
78149;BME280;67396;42.664;23.382;2023-06-14T09:36:58;94775.97;;;22.21;55.36
78149;BME280;67396;42.664;23.382;2023-06-14T09:39:24;94773.31;;;22.18;55.50
78149;BME280;67396;42.664;23.382;2023-06-14T09:41:50;94776.13;;;22.45;54.38
78149;BME280;67396;42.664;23.382;2023-06-14T09:44:25;94769.94;;;22.77;55.69
78149;BME280;67396;42.664;23.382;2023-06-14T09:47:15;94765.25;;;22.93;53.85
78149;BME280;67396;42.664;23.382;2023-06-14T10:06:50;94757.09;;;21.27;58.38
78149;BME280;67396;42.664;23.382;2023-06-14T10:09:31;94747.97;;;21.35;59.34
78149;BME280;67396;42.664;23.382;2023-06-14T10:12:08;94742.72;;;21.47;58.83
78149;BME280;67396;42.664;23.382;2023-06-14T10:14:37;94734.28;;;21.77;57.96
78149;BME280;67396;42.664;23.382;2023-06-14T10:17:20;94733.84;;;22.43;57.58
78149;BME280;67396;42.664;23.382;2023-06-14T10:23:34;94732.78;;;23.28;50.83
78149;BME280;67396;42.664;23.382;2023-06-14T10:26:23;94727.47;;;23.30;49.95
78149;BME280;67396;42.664;23.382;2023-06-14T10:28:58;94730.78;;;23.61;50.20
78149;BME280;67396;42.664;23.382;2023-06-14T10:32:00;94732.22;;;23.81;50.36
78149;BME280;67396;42.664;23.382;2023-06-14T10:34:29;94731.13;;;24.02;50.28
78149;BME280;67396;42.664;23.382;2023-06-14T10:37:12;94721.84;;;23.72;50.27
78149;BME280;67396;42.664;23.382;2023-06-14T10:39:59;94731.03;;;23.73;49.64
78149;BME280;67396;42.664;23.382;2023-06-14T10:42:37;94721.13;;;23.86;49.02
78149;BME280;67396;42.664;23.382;2023-06-14T10:45:30;94718.84;;;23.76;48.98
78149;BME280;67396;42.664;23.382;2023-06-14T11:12:22;94692.50;;;22.74;51.56
78149;BME280;67396;42.664;23.382;2023-06-14T11:15:17;94696.50;;;22.73;52.55
78149;BME280;67396;42.664;23.382;2023-06-14T11:17:54;94689.06;;;22.79;51.43
78149;BME280;67396;42.664;23.382;2023-06-14T11:20:25;94690.44;;;22.93;50.99
78149;BME280;67396;42.664;23.382;2023-06-14T11:22:52;94685.13;;;23.04;51.17
78149;BME280;67396;42.664;23.382;2023-06-14T11:25:18;94688.53;;;22.99;51.11
78149;BME280;67396;42.664;23.382;2023-06-14T11:27:44;94680.81;;;22.85;49.89
78149;BME280;67396;42.664;23.382;2023-06-14T11:30:16;94676.25;;;22.97;49.22
78149;BME280;67396;42.664;23.382;2023-06-14T11:32:46;94667.72;;;22.91;50.12
78149;BME280;67396;42.664;23.382;2023-06-14T11:35:15;94672.84;;;22.93;50.83
78149;BME280;67396;42.664;23.382;2023-06-14T11:38:02;94679.97;;;23.03;50.84
78149;BME280;67396;42.664;23.382;2023-06-14T11:40:42;94683.06;;;23.05;50.60
78149;BME280;67396;42.664;23.382;2023-06-14T11:46:37;94673.63;;;22.93;49.25
78149;BME280;67396;42.664;23.382;2023-06-14T11:49:09;94667.41;;;22.89;49.67
78149;BME280;67396;42.664;23.382;2023-06-14T11:51:54;94655.28;;;22.92;50.15
78149;BME280;67396;42.664;23.382;2023-06-14T11:55:29;94652.66;;;22.88;50.33
78149;BME280;67396;42.664;23.382;2023-06-14T11:58:30;94643.31;;;22.92;51.30
78149;BME280;67396;42.664;23.382;2023-06-14T12:01:36;94645.94;;;22.95;51.98
78149;BME280;67396;42.664;23.382;2023-06-14T12:31:20;94621.47;;;23.05;50.54
78149;BME280;67396;42.664;23.382;2023-06-14T12:33:46;94617.41;;;23.06;50.14
78149;BME280;67396;42.664;23.382;2023-06-14T12:36:23;94617.13;;;23.04;50.81
78149;BME280;67396;42.664;23.382;2023-06-14T12:42:59;94607.69;;;23.25;49.19
78149;BME280;67396;42.664;23.382;2023-06-14T12:45:34;94609.22;;;23.26;49.14
78149;BME280;67396;42.664;23.382;2023-06-14T12:51:09;94599.94;;;23.20;49.19
78149;BME280;67396;42.664;23.382;2023-06-14T12:57:54;94598.06;;;23.17;48.54
78149;BME280;67396;42.664;23.382;2023-06-14T13:23:29;94627.81;;;21.08;64.95
78149;BME280;67396;42.664;23.382;2023-06-14T13:26:04;94622.94;;;20.90;66.22
78149;BME280;67396;42.664;23.382;2023-06-14T13:28:35;94628.84;;;20.61;68.57
78149;BME280;67396;42.664;23.382;2023-06-14T13:31:39;94641.59;;;20.19;71.79
78149;BME280;67396;42.664;23.382;2023-06-14T13:50:40;94625.28;;;20.30;71.14
78149;BME280;67396;42.664;23.382;2023-06-14T14:19:01;94663.38;;;19.89;70.71
78149;BME280;67396;42.664;23.382;2023-06-14T14:21:27;94662.72;;;19.85;71.13
78149;BME280;67396;42.664;23.382;2023-06-14T14:24:03;94671.00;;;19.76;70.88
78149;BME280;67396;42.664;23.382;2023-06-14T14:26:45;94687.72;;;19.76;71.25
78149;BME280;67396;42.664;23.382;2023-06-14T14:29:23;94703.44;;;20.05;67.67
78149;BME280;67396;42.664;23.382;2023-06-14T14:31:48;94706.31;;;20.14;67.44
78149;BME280;67396;42.664;23.382;2023-06-14T14:34:17;94705.53;;;20.13;67.67
78149;BME280;67396;42.664;23.382;2023-06-14T14:37:17;94700.97;;;20.07;67.36
78149;BME280;67396;42.664;23.382;2023-06-14T14:40:17;94702.00;;;20.00;68.95
78149;BME280;67396;42.664;23.382;2023-06-14T14:46:06;94702.69;;;19.91;68.16
78149;BME280;67396;42.664;23.382;2023-06-14T14:57:39;94708.03;;;19.64;69.38
78149;BME280;67396;42.664;23.382;2023-06-14T15:09:14;94710.25;;;19.69;67.90
78149;BME280;67396;42.664;23.382;2023-06-14T15:12:28;94704.19;;;19.83;67.35
78149;BME280;67396;42.664;23.382;2023-06-14T15:18:51;94690.75;;;20.04;67.26
78149;BME280;67396;42.664;23.382;2023-06-14T15:25:30;94687.81;;;20.29;66.82
78149;BME280;67396;42.664;23.382;2023-06-14T15:28:23;94694.38;;;20.35;66.14
78149;BME280;67396;42.664;23.382;2023-06-14T15:40:28;94694.75;;;20.03;67.17
78149;BME280;67396;42.664;23.382;2023-06-14T15:46:41;94699.50;;;19.80;68.17
78149;BME280;67396;42.664;23.382;2023-06-14T15:49:19;94690.34;;;19.92;67.51
78149;BME280;67396;42.664;23.382;2023-06-14T15:59:10;94719.50;;;20.01;67.91
78149;BME280;67396;42.664;23.382;2023-06-14T16:01:41;94710.94;;;19.95;67.66
78149;BME280;67396;42.664;23.382;2023-06-14T16:04:27;94712.25;;;20.03;67.82
78149;BME280;67396;42.664;23.382;2023-06-14T16:07:21;94711.72;;;19.96;67.38
78149;BME280;67396;42.664;23.382;2023-06-14T16:10:00;94712.69;;;20.02;67.61
78149;BME280;67396;42.664;23.382;2023-06-14T16:12:40;94708.88;;;20.08;68.17
78149;BME280;67396;42.664;23.382;2023-06-14T16:40:18;94740.13;;;19.31;70.31
78149;BME280;67396;42.664;23.382;2023-06-14T16:47:14;94726.69;;;19.16;70.24
78149;BME280;67396;42.664;23.382;2023-06-14T16:49:54;94735.91;;;19.13;69.50
78149;BME280;67396;42.664;23.382;2023-06-14T17:19:49;94760.25;;;18.84;72.14
78149;BME280;67396;42.664;23.382;2023-06-14T17:26:10;94754.81;;;18.52;73.52
78149;BME280;67396;42.664;23.382;2023-06-14T17:34:55;94767.75;;;18.58;73.32
78149;BME280;67396;42.664;23.382;2023-06-14T17:37:47;94770.16;;;18.43;73.33
78149;BME280;67396;42.664;23.382;2023-06-14T17:43:41;94774.00;;;18.62;72.32
78149;BME280;67396;42.664;23.382;2023-06-14T17:46:07;94777.50;;;18.79;70.52
78149;BME280;67396;42.664;23.382;2023-06-14T17:48:51;94782.38;;;18.75;70.86
78149;BME280;67396;42.664;23.382;2023-06-14T17:51:17;94779.94;;;18.77;70.88
78149;BME280;67396;42.664;23.382;2023-06-14T17:57:35;94785.34;;;18.68;70.09
78149;BME280;67396;42.664;23.382;2023-06-14T18:00:23;94788.34;;;18.61;70.93
78149;BME280;67396;42.664;23.382;2023-06-14T18:02:52;94787.34;;;18.67;71.17
78149;BME280;67396;42.664;23.382;2023-06-14T18:05:18;94783.94;;;18.76;70.57
78149;BME280;67396;42.664;23.382;2023-06-14T18:07:43;94774.16;;;18.84;69.75
78149;BME280;67396;42.664;23.382;2023-06-14T18:10:19;94779.72;;;18.84;69.05
78149;BME280;67396;42.664;23.382;2023-06-14T18:12:54;94788.97;;;18.94;68.60
78149;BME280;67396;42.664;23.382;2023-06-14T18:18:31;94804.22;;;18.89;66.24
78149;BME280;67396;42.664;23.382;2023-06-14T18:21:22;94803.13;;;18.99;66.86
78149;BME280;67396;42.664;23.382;2023-06-14T18:26:55;94802.56;;;19.04;65.33
78149;BME280;67396;42.664;23.382;2023-06-14T18:29:21;94808.47;;;19.06;65.62
78149;BME280;67396;42.664;23.382;2023-06-14T18:35:23;94800.34;;;19.37;65.27
78149;BME280;67396;42.664;23.382;2023-06-14T18:38:24;94792.78;;;19.38;65.92
78149;BME280;67396;42.664;23.382;2023-06-14T18:41:05;94793.78;;;19.44;66.92
78149;BME280;67396;42.664;23.382;2023-06-14T18:43:34;94798.56;;;19.31;68.76
78149;BME280;67396;42.664;23.382;2023-06-14T18:45:59;94824.31;;;19.35;68.46
78149;BME280;67396;42.664;23.382;2023-06-14T18:48:25;94817.50;;;19.36;68.30
78149;BME280;67396;42.664;23.382;2023-06-14T18:50:54;94823.72;;;19.27;68.56
78149;BME280;67396;42.664;23.382;2023-06-14T18:53:20;94832.53;;;19.38;69.32
78149;BME280;67396;42.664;23.382;2023-06-14T18:55:47;94826.88;;;19.42;68.75
78149;BME280;67396;42.664;23.382;2023-06-14T18:58:16;94834.66;;;19.47;68.89
78149;BME280;67396;42.664;23.382;2023-06-14T19:00:44;94827.00;;;19.51;68.65
78149;BME280;67396;42.664;23.382;2023-06-14T19:03:10;94833.44;;;19.48;68.96
78149;BME280;67396;42.664;23.382;2023-06-14T19:08:40;94833.44;;;19.48;69.28
78149;BME280;67396;42.664;23.382;2023-06-14T19:11:13;94837.66;;;19.40;69.74
78149;BME280;67396;42.664;23.382;2023-06-14T19:16:37;94846.56;;;19.35;67.01
78149;BME280;67396;42.664;23.382;2023-06-14T19:19:06;94840.09;;;19.25;67.70
78149;BME280;67396;42.664;23.382;2023-06-14T19:21:34;94843.97;;;19.28;67.59
78149;BME280;67396;42.664;23.382;2023-06-14T19:24:06;94846.22;;;19.33;66.36
78149;BME280;67396;42.664;23.382;2023-06-14T19:26:37;94854.34;;;19.40;67.84
78149;BME280;67396;42.664;23.382;2023-06-14T19:29:24;94853.47;;;19.43;67.80
78149;BME280;67396;42.664;23.382;2023-06-14T19:31:58;94855.91;;;19.41;68.43
78149;BME280;67396;42.664;23.382;2023-06-14T19:34:32;94861.03;;;19.30;68.43
78149;BME280;67396;42.664;23.382;2023-06-14T19:37:16;94864.25;;;19.28;68.47
78149;BME280;67396;42.664;23.382;2023-06-14T19:39:52;94862.81;;;19.24;69.38
78149;BME280;67396;42.664;23.382;2023-06-14T19:42:17;94866.91;;;19.06;70.56
78149;BME280;67396;42.664;23.382;2023-06-14T19:44:45;94866.13;;;19.06;70.28
78149;BME280;67396;42.664;23.382;2023-06-14T19:47:17;94867.03;;;19.15;68.90
78149;BME280;67396;42.664;23.382;2023-06-14T19:49:51;94867.69;;;19.20;69.38
78149;BME280;67396;42.664;23.382;2023-06-14T19:52:26;94875.38;;;19.15;72.22
78149;BME280;67396;42.664;23.382;2023-06-14T19:55:02;94876.31;;;18.96;73.90
78149;BME280;67396;42.664;23.382;2023-06-14T19:58:22;94879.97;;;18.93;74.96
78149;BME280;67396;42.664;23.382;2023-06-14T20:01:53;94874.47;;;18.77;75.51
78149;BME280;67396;42.664;23.382;2023-06-14T20:04:39;94871.66;;;18.48;72.16
78149;BME280;67396;42.664;23.382;2023-06-14T20:07:28;94867.22;;;18.51;68.34
78149;BME280;67396;42.664;23.382;2023-06-14T20:09:56;94867.28;;;18.34;70.45
78149;BME280;67396;42.664;23.382;2023-06-14T20:12:28;94867.97;;;18.22;69.51
78149;BME280;67396;42.664;23.382;2023-06-14T20:14:56;94871.97;;;18.05;71.69
78149;BME280;67396;42.664;23.382;2023-06-14T20:17:22;94864.53;;;18.02;72.47